Time;durP1;ratioP1;P1;durP2;ratioP2;P2;SDS_P1;SDS_P2;PMS_P1;PMS_P2;Temp;Humidity;BMP_temperature;BMP_pressure;BME280_temperature;BME280_humidity;BME280_pressure;Samples;Min_cycle;Max_cycle;Signal;HPM_P1;HPM_P2
2022/08/13 00:00:36;;;;;;;;;;;28.90;77.80;;;;;;5039186;28;19937;-60
2022/08/13 00:03:14;;;;;;;;;;;28.90;77.80;;;;;;5037282;28;19929;-60
2022/08/13 00:06:04;;;;;;;;;;;28.90;77.80;;;;;;5045845;28;20411;-59
2022/08/13 00:08:33;;;;;;;;;;;28.90;77.80;;;;;;5033788;28;19928;-61
2022/08/13 00:11:00;;;;;;;;;;;28.90;77.80;;;;;;5030705;28;19925;-59
2022/08/13 00:13:27;;;;;;;;;;;28.90;77.80;;;;;;5031083;28;19932;-61
2022/08/13 00:16:10;;;;;;;;;;;28.90;77.80;;;;;;5031947;28;19929;-59
2022/08/13 00:18:38;;;;;;;;;;;28.90;77.80;;;;;;5030248;28;19940;-60
2022/08/13 00:21:08;;;;;;;;;;;28.90;77.80;;;;;;5037464;28;19933;-62
2022/08/13 00:23:37;;;;;;;;;;;28.90;77.90;;;;;;5038193;28;19936;-58
2022/08/13 00:26:25;;;;;;;;;;;28.90;77.90;;;;;;5036473;28;19928;-62
2022/08/13 00:29:01;;;;;;;;;;;28.90;77.90;;;;;;5034618;28;20377;-59
2022/08/13 00:31:28;;;;;;;;;;;28.90;77.90;;;;;;5036965;28;20204;-58
2022/08/13 00:33:58;;;;;;;;;;;28.80;77.80;;;;;;5034965;28;19929;-60
2022/08/13 00:36:28;;;;;;;;;;;28.90;77.90;;;;;;5034661;28;19936;-59
2022/08/13 00:39:05;;;;;;;;;;;28.90;78.00;;;;;;5030374;28;20355;-58
2022/08/13 00:41:38;;;;;;;;;;;28.90;78.00;;;;;;5020233;28;19935;-59
2022/08/13 00:44:28;;;;;;;;;;;28.90;78.00;;;;;;5031555;28;19936;-61
2022/08/13 00:48:41;;;;;;;;;;;28.80;77.90;;;;;;5039215;28;19924;-59
2022/08/13 00:49:47;;;;;;;;;;;28.80;77.90;;;;;;5029729;28;20406;-61
2022/08/13 00:52:30;;;;;;;;;;;28.80;77.90;;;;;;5031903;28;19933;-60
2022/08/13 00:55:02;;;;;;;;;;;28.80;77.90;;;;;;5032448;28;19940;-60
2022/08/13 00:57:29;;;;;;;;;;;28.80;77.90;;;;;;5035304;28;20301;-59
2022/08/13 01:00:01;;;;;;;;;;;28.80;77.90;;;;;;5034416;28;19929;-60
2022/08/13 01:02:28;;;;;;;;;;;28.80;77.90;;;;;;5029238;28;19929;-60
2022/08/13 01:05:00;;;;;;;;;;;28.80;77.90;;;;;;5030159;28;19948;-61
2022/08/13 01:07:30;;;;;;;;;;;28.80;77.90;;;;;;5034094;28;19952;-60
2022/08/13 01:10:19;;;;;;;;;;;28.80;77.90;;;;;;5030406;28;20320;-59
2022/08/13 01:12:49;;;;;;;;;;;28.80;77.90;;;;;;5034794;28;19935;-58
2022/08/13 01:15:18;;;;;;;;;;;28.80;77.90;;;;;;5037164;28;20038;-59
2022/08/13 01:17:45;;;;;;;;;;;28.80;78.00;;;;;;5029777;28;19925;-61
2022/08/13 01:20:22;;;;;;;;;;;28.80;78.00;;;;;;5019973;28;20285;-59
2022/08/13 01:23:01;;;;;;;;;;;28.80;77.90;;;;;;5038599;28;20343;-60
2022/08/13 01:25:30;;;;;;;;;;;28.80;78.00;;;;;;5040545;28;19929;-60
2022/08/13 01:28:09;;;;;;;;;;;28.80;78.00;;;;;;5042649;28;19932;-60
2022/08/13 01:30:37;;;;;;;;;;;28.70;77.90;;;;;;5035475;28;20451;-60
2022/08/13 01:33:08;;;;;;;;;;;28.80;78.00;;;;;;5031132;28;19929;-58
2022/08/13 01:35:36;;;;;;;;;;;28.80;78.00;;;;;;5035189;28;19941;-58
2022/08/13 01:38:08;;;;;;;;;;;28.80;78.00;;;;;;5034468;28;19940;-62
2022/08/13 01:40:36;;;;;;;;;;;28.70;78.00;;;;;;5032431;28;20392;-60
2022/08/13 01:43:07;;;;;;;;;;;28.70;78.00;;;;;;5035587;28;19929;-62
2022/08/13 01:45:49;;;;;;;;;;;28.70;78.00;;;;;;5042515;28;19929;-59
2022/08/13 01:51:28;;;;;;;;;;;28.70;78.00;;;;;;5037969;28;19936;-60
2022/08/13 01:54:09;;;;;;;;;;;28.70;78.00;;;;;;5034210;28;19925;-58
2022/08/13 01:56:59;;;;;;;;;;;28.70;78.00;;;;;;5033275;28;19925;-62
2022/08/13 01:59:27;;;;;;;;;;;28.70;78.00;;;;;;5038323;28;19925;-61
2022/08/13 02:02:14;;;;;;;;;;;28.70;78.10;;;;;;5034064;28;19928;-61
2022/08/13 02:05:02;;;;;;;;;;;28.70;78.10;;;;;;5024232;28;19933;-58
2022/08/13 02:07:31;;;;;;;;;;;28.70;78.10;;;;;;5016052;28;21506;-60
2022/08/13 02:10:19;;;;;;;;;;;28.70;78.10;;;;;;5036426;28;19933;-60
2022/08/13 02:12:49;;;;;;;;;;;28.70;78.10;;;;;;5034306;28;19929;-61
2022/08/13 02:15:16;;;;;;;;;;;28.70;78.10;;;;;;5029224;28;20000;-60
2022/08/13 02:17:45;;;;;;;;;;;28.70;78.10;;;;;;5036350;28;19929;-62
2022/08/13 02:20:34;;;;;;;;;;;28.70;78.10;;;;;;5020096;28;19925;-61
2022/08/13 02:23:04;;;;;;;;;;;28.60;78.00;;;;;;5012992;28;19936;-59
2022/08/13 02:25:32;;;;;;;;;;;28.60;78.10;;;;;;5042279;28;20409;-59
2022/08/13 02:28:00;;;;;;;;;;;28.60;78.10;;;;;;5028121;28;19954;-59
2022/08/13 02:30:29;;;;;;;;;;;28.60;78.10;;;;;;5031244;28;19940;-60
2022/08/13 02:33:00;;;;;;;;;;;28.60;78.10;;;;;;5037941;28;20289;-61
2022/08/13 02:35:27;;;;;;;;;;;28.70;78.20;;;;;;5031112;28;19929;-62
2022/08/13 02:38:14;;;;;;;;;;;28.60;78.10;;;;;;5029283;28;20401;-59
2022/08/13 02:43:46;;;;;;;;;;;28.60;78.10;;;;;;5031836;28;19925;-63
2022/08/13 02:46:25;;;;;;;;;;;28.60;78.10;;;;;;5018962;28;20656;-58
2022/08/13 02:48:55;;;;;;;;;;;28.60;78.10;;;;;;5030234;28;20286;-62
2022/08/13 02:51:23;;;;;;;;;;;28.60;78.20;;;;;;5029242;28;19936;-60
2022/08/13 02:54:11;;;;;;;;;;;28.60;78.20;;;;;;5032116;28;19929;-61
2022/08/13 02:56:39;;;;;;;;;;;28.60;78.20;;;;;;5034264;28;20316;-56
2022/08/13 02:59:10;;;;;;;;;;;28.60;78.20;;;;;;5034683;28;19929;-58
2022/08/13 03:01:58;;;;;;;;;;;28.50;78.10;;;;;;5032631;28;20337;-60
2022/08/13 03:04:25;;;;;;;;;;;28.60;78.20;;;;;;5024734;28;19929;-58
2022/08/13 03:07:00;;;;;;;;;;;28.60;78.20;;;;;;5036394;28;20308;-60
2022/08/13 03:09:28;;;;;;;;;;;28.60;78.20;;;;;;5035766;28;20681;-59
2022/08/13 03:11:58;;;;;;;;;;;28.60;78.20;;;;;;5028567;28;20320;-62
2022/08/13 03:14:32;;;;;;;;;;;28.50;78.10;;;;;;5041171;28;19932;-59
2022/08/13 03:16:59;;;;;;;;;;;28.60;78.20;;;;;;5041494;28;20415;-62
2022/08/13 03:19:28;;;;;;;;;;;28.50;78.10;;;;;;5030937;28;19932;-60
2022/08/13 03:21:55;;;;;;;;;;;28.60;78.30;;;;;;5034200;28;19929;-60
2022/08/13 03:24:26;;;;;;;;;;;28.50;78.20;;;;;;5028880;28;19932;-59
2022/08/13 03:26:58;;;;;;;;;;;28.50;78.20;;;;;;5032355;28;20428;-59
2022/08/13 03:29:26;;;;;;;;;;;28.50;78.20;;;;;;5029472;28;19929;-61
2022/08/13 03:32:13;;;;;;;;;;;28.50;78.20;;;;;;5032927;28;19936;-61
2022/08/13 03:34:42;;;;;;;;;;;28.50;78.20;;;;;;5031619;28;19929;-61
2022/08/13 03:37:10;;;;;;;;;;;28.50;78.30;;;;;;5038617;28;19925;-58
2022/08/13 03:39:40;;;;;;;;;;;28.50;78.20;;;;;;5036972;28;19951;-58
2022/08/13 03:42:09;;;;;;;;;;;28.50;78.30;;;;;;5013745;28;19940;-62
2022/08/13 03:44:41;;;;;;;;;;;28.50;78.30;;;;;;5038081;28;19936;-62
2022/08/13 03:47:09;;;;;;;;;;;28.50;78.30;;;;;;5036410;28;19948;-59
2022/08/13 03:49:57;;;;;;;;;;;28.50;78.30;;;;;;5032955;28;19925;-59
2022/08/13 03:52:25;;;;;;;;;;;28.50;78.30;;;;;;5036829;28;20479;-61
2022/08/13 03:55:06;;;;;;;;;;;28.50;78.30;;;;;;5036778;28;19928;-60
2022/08/13 03:57:41;;;;;;;;;;;28.50;78.30;;;;;;5031356;28;19929;-59
2022/08/13 04:00:28;;;;;;;;;;;28.50;78.30;;;;;;5033302;28;19933;-61
2022/08/13 04:02:56;;;;;;;;;;;28.50;78.40;;;;;;5038263;28;19929;-60
2022/08/13 04:05:23;;;;;;;;;;;28.40;78.30;;;;;;5041135;28;19929;-62
2022/08/13 04:08:10;;;;;;;;;;;28.50;78.50;;;;;;5038667;28;19929;-60
2022/08/13 04:10:41;;;;;;;;;;;28.40;78.30;;;;;;5019120;28;19935;-61
2022/08/13 04:13:20;;;;;;;;;;;28.50;78.40;;;;;;5039585;28;19952;-61
2022/08/13 04:16:13;;;;;;;;;;;28.50;78.40;;;;;;5038730;28;19936;-60
2022/08/13 04:18:42;;;;;;;;;;;28.40;78.30;;;;;;5034634;28;19928;-60
2022/08/13 04:21:10;;;;;;;;;;;28.40;78.30;;;;;;5043785;28;19925;-61
2022/08/13 04:23:48;;;;;;;;;;;28.40;78.30;;;;;;5030060;28;19929;-59
2022/08/13 04:26:16;;;;;;;;;;;28.40;78.30;;;;;;5032257;28;19932;-59
2022/08/13 04:28:59;;;;;;;;;;;28.40;78.30;;;;;;5043227;28;19937;-60
2022/08/13 04:31:26;;;;;;;;;;;28.40;78.30;;;;;;5035519;28;19932;-60
2022/08/13 04:34:15;;;;;;;;;;;28.40;78.40;;;;;;5041866;28;19936;-60
2022/08/13 04:37:02;;;;;;;;;;;28.40;79.00;;;;;;5041827;28;19929;-62
2022/08/13 04:39:30;;;;;;;;;;;28.40;78.40;;;;;;5040253;28;19932;-61
2022/08/13 04:42:17;;;;;;;;;;;28.40;78.40;;;;;;5046773;28;20393;-62
2022/08/13 04:45:04;;;;;;;;;;;28.40;78.40;;;;;;5044256;28;19959;-62
2022/08/13 04:47:40;;;;;;;;;;;28.40;78.40;;;;;;5035563;28;19936;-61
2022/08/13 04:50:08;;;;;;;;;;;28.40;78.40;;;;;;5039632;28;20569;-60
2022/08/13 04:52:37;;;;;;;;;;;28.30;78.40;;;;;;5033865;28;20716;-61
2022/08/13 04:55:06;;;;;;;;;;;28.40;78.40;;;;;;5044582;28;19936;-61
2022/08/13 04:57:41;;;;;;;;;;;28.40;78.40;;;;;;5039349;28;19933;-60
2022/08/13 05:00:29;;;;;;;;;;;28.30;78.40;;;;;;5021486;28;19936;-61
2022/08/13 05:02:56;;;;;;;;;;;28.40;78.50;;;;;;5032748;28;19929;-61
2022/08/13 05:05:24;;;;;;;;;;;28.30;78.40;;;;;;5031951;28;19925;-60
2022/08/13 05:07:52;;;;;;;;;;;28.30;78.40;;;;;;5030060;28;20392;-62
2022/08/13 05:10:20;;;;;;;;;;;28.30;78.40;;;;;;5037714;28;19933;-61
2022/08/13 05:12:58;;;;;;;;;;;28.30;78.40;;;;;;5031349;28;19925;-61
2022/08/13 05:15:29;;;;;;;;;;;28.30;78.40;;;;;;5037972;28;19929;-61
2022/08/13 05:18:15;;;;;;;;;;;28.40;78.50;;;;;;5031673;28;19933;-60
2022/08/13 05:20:54;;;;;;;;;;;28.30;78.40;;;;;;5034640;28;19929;-61
2022/08/13 05:23:21;;;;;;;;;;;28.30;78.40;;;;;;5041573;28;19929;-58
2022/08/13 05:26:10;;;;;;;;;;;28.40;78.50;;;;;;5037663;28;19929;-58
2022/08/13 05:29:02;;;;;;;;;;;28.40;78.40;;;;;;5025343;28;20393;-59
2022/08/13 05:31:32;;;;;;;;;;;28.40;78.50;;;;;;5034154;28;19929;-60
2022/08/13 05:34:03;;;;;;;;;;;28.30;78.40;;;;;;5032430;28;20432;-59
2022/08/13 05:36:32;;;;;;;;;;;28.30;78.40;;;;;;5039129;28;19936;-58
2022/08/13 05:39:20;;;;;;;;;;;28.30;78.30;;;;;;5037599;28;20658;-59
2022/08/13 05:41:48;;;;;;;;;;;28.40;78.30;;;;;;5030093;28;19929;-61
2022/08/13 05:44:34;;;;;;;;;;;28.40;78.30;;;;;;5028839;28;20312;-58
2022/08/13 05:47:05;;;;;;;;;;;28.40;78.30;;;;;;5029348;28;19929;-59
2022/08/13 05:49:33;;;;;;;;;;;28.40;78.30;;;;;;5031158;28;19929;-60
2022/08/13 05:52:24;;;;;;;;;;;28.40;78.40;;;;;;5032428;28;19929;-58
2022/08/13 05:55:12;;;;;;;;;;;28.40;78.40;;;;;;5033744;28;19944;-62
2022/08/13 05:57:59;;;;;;;;;;;28.30;78.40;;;;;;5035112;28;19929;-60
2022/08/13 06:03:27;;;;;;;;;;;28.40;78.50;;;;;;5031078;28;20289;-56
2022/08/13 06:06:16;;;;;;;;;;;28.30;78.40;;;;;;5023099;28;20391;-58
2022/08/13 06:08:56;;;;;;;;;;;28.30;78.40;;;;;;5024178;28;19936;-56
2022/08/13 06:11:29;;;;;;;;;;;28.30;78.40;;;;;;5032603;28;19929;-59
2022/08/13 06:14:17;;;;;;;;;;;28.40;78.50;;;;;;5023608;28;19936;-58
2022/08/13 06:16:45;;;;;;;;;;;28.30;78.40;;;;;;5038554;28;19925;-62
2022/08/13 06:19:24;;;;;;;;;;;28.40;78.50;;;;;;5033437;28;19944;-59
2022/08/13 06:21:57;;;;;;;;;;;28.30;78.40;;;;;;5033894;28;19925;-60
2022/08/13 06:24:27;;;;;;;;;;;28.30;78.50;;;;;;5035388;28;20344;-59
2022/08/13 06:26:59;;;;;;;;;;;28.30;78.40;;;;;;5028315;28;19932;-58
2022/08/13 06:29:28;;;;;;;;;;;28.30;78.50;;;;;;5017948;28;20388;-58
2022/08/13 06:31:56;;;;;;;;;;;28.30;78.50;;;;;;5019026;28;19929;-57
2022/08/13 06:34:25;;;;;;;;;;;28.30;78.50;;;;;;5032790;28;19925;-57
2022/08/13 06:37:02;;;;;;;;;;;28.30;78.50;;;;;;5032957;28;19956;-60
2022/08/13 06:39:32;;;;;;;;;;;28.30;78.50;;;;;;5041779;28;19932;-61
2022/08/13 06:42:03;;;;;;;;;;;28.30;78.50;;;;;;5029070;28;19929;-58
2022/08/13 06:44:31;;;;;;;;;;;28.40;78.50;;;;;;5028638;28;19925;-58
2022/08/13 06:47:03;;;;;;;;;;;28.30;78.50;;;;;;5028019;28;19936;-59
2022/08/13 06:49:31;;;;;;;;;;;28.40;78.60;;;;;;5038189;28;19929;-57
2022/08/13 06:52:18;;;;;;;;;;;28.40;78.50;;;;;;5022312;28;19929;-59
2022/08/13 06:54:48;;;;;;;;;;;28.40;78.50;;;;;;5034359;28;19929;-58
2022/08/13 06:57:19;;;;;;;;;;;28.40;78.50;;;;;;5032736;28;20420;-62
2022/08/13 06:59:48;;;;;;;;;;;28.40;78.50;;;;;;5038094;28;20483;-61
2022/08/13 07:02:36;;;;;;;;;;;28.40;78.50;;;;;;5027806;28;19933;-57
2022/08/13 07:05:04;;;;;;;;;;;28.40;78.60;;;;;;5032060;28;19936;-61
2022/08/13 07:07:43;;;;;;;;;;;28.40;78.70;;;;;;5039608;28;19928;-60
2022/08/13 07:10:13;;;;;;;;;;;28.40;78.70;;;;;;5026356;28;19980;-58
2022/08/13 07:12:41;;;;;;;;;;;28.50;78.80;;;;;;5010728;28;19933;-58
2022/08/13 07:15:13;;;;;;;;;;;28.50;78.80;;;;;;5038537;28;19925;-56
2022/08/13 07:18:00;;;;;;;;;;;28.40;78.70;;;;;;5015107;28;19932;-58
2022/08/13 07:20:30;;;;;;;;;;;28.40;78.70;;;;;;5028559;28;19929;-57
2022/08/13 07:22:57;;;;;;;;;;;28.40;78.70;;;;;;5010824;28;19936;-58
2022/08/13 07:25:46;;;;;;;;;;;28.50;78.80;;;;;;5035693;28;19933;-56
2022/08/13 07:28:28;;;;;;;;;;;28.50;78.80;;;;;;5021971;28;19936;-55
2022/08/13 07:31:17;;;;;;;;;;;28.50;78.80;;;;;;5047400;28;19929;-58
2022/08/13 07:33:51;;;;;;;;;;;28.50;78.80;;;;;;5028177;28;19928;-59
2022/08/13 07:36:28;;;;;;;;;;;28.50;78.90;;;;;;5040384;28;19929;-61
2022/08/13 07:38:56;;;;;;;;;;;28.50;78.90;;;;;;5018656;28;19940;-60
2022/08/13 07:41:27;;;;;;;;;;;28.50;78.90;;;;;;5024844;28;20015;-60
2022/08/13 07:43:59;;;;;;;;;;;28.50;78.90;;;;;;5034139;28;19929;-56
2022/08/13 07:46:34;;;;;;;;;;;28.50;78.80;;;;;;5024629;28;19936;-59
2022/08/13 07:49:09;;;;;;;;;;;28.60;79.00;;;;;;5035570;28;19925;-58
2022/08/13 07:51:37;;;;;;;;;;;28.50;78.90;;;;;;5022366;28;19928;-57
2022/08/13 07:54:07;;;;;;;;;;;28.60;78.90;;;;;;5039449;28;19933;-59
2022/08/13 07:56:36;;;;;;;;;;;28.60;79.00;;;;;;5046097;28;20423;-60
2022/08/13 07:59:04;;;;;;;;;;;28.60;78.90;;;;;;5039013;28;20255;-59
2022/08/13 08:01:34;;;;;;;;;;;28.60;79.00;;;;;;5039190;28;20319;-57
2022/08/13 08:04:24;;;;;;;;;;;28.60;79.00;;;;;;5040574;28;19928;-56
2022/08/13 08:06:57;;;;;;;;;;;28.60;79.00;;;;;;5034653;28;19925;-58
2022/08/13 08:09:31;;;;;;;;;;;28.60;79.00;;;;;;5035550;28;19925;-55
2022/08/13 08:14:54;;;;;;;;;;;28.60;79.00;;;;;;5038219;28;19929;-58
2022/08/13 08:17:26;;;;;;;;;;;28.60;79.00;;;;;;5022697;28;19929;-58
2022/08/13 08:20:21;;;;;;;;;;;28.60;79.00;;;;;;5034871;28;19929;-58
2022/08/13 08:23:09;;;;;;;;;;;28.60;79.00;;;;;;5039588;28;19925;-57
2022/08/13 08:25:38;;;;;;;;;;;28.70;79.10;;;;;;5043293;28;19925;-60
2022/08/13 08:28:28;;;;;;;;;;;28.70;79.10;;;;;;5045394;28;19929;-58
2022/08/13 08:31:06;;;;;;;;;;;28.60;79.00;;;;;;5044138;28;19940;-58
2022/08/13 08:34:00;;;;;;;;;;;28.70;79.10;;;;;;5048591;28;19936;-59
2022/08/13 08:36:28;;;;;;;;;;;28.70;79.10;;;;;;5024430;28;19933;-58
2022/08/13 08:44:57;;;;;;;;;;;28.70;79.10;;;;;;5037694;28;20263;-60
2022/08/13 08:47:30;;;;;;;;;;;28.70;79.10;;;;;;5037117;28;19929;-55
2022/08/13 08:50:22;;;;;;;;;;;28.70;79.10;;;;;;5044428;28;19936;-56
2022/08/13 08:56:04;;;;;;;;;;;28.70;79.10;;;;;;5038245;28;19932;-56
2022/08/13 08:58:34;;;;;;;;;;;28.70;79.10;;;;;;5034880;28;19933;-60
2022/08/13 09:01:07;;;;;;;;;;;28.70;79.10;;;;;;5043468;28;19940;-63
2022/08/13 09:03:39;;;;;;;;;;;28.70;79.10;;;;;;5041617;28;19929;-60
2022/08/13 09:06:24;;;;;;;;;;;28.70;79.10;;;;;;5023245;28;20418;-60
2022/08/13 09:09:13;;;;;;;;;;;28.70;79.10;;;;;;5023410;28;19936;-60
2022/08/13 09:11:46;;;;;;;;;;;28.70;79.10;;;;;;5035884;28;19925;-59
2022/08/13 09:14:20;;;;;;;;;;;28.70;79.10;;;;;;5029000;28;19933;-62
2022/08/13 09:16:49;;;;;;;;;;;28.70;79.10;;;;;;5033265;28;19929;-63
2022/08/13 09:19:19;;;;;;;;;;;28.80;79.10;;;;;;5044714;28;19928;-61
2022/08/13 09:22:06;;;;;;;;;;;28.70;79.10;;;;;;5031340;28;19925;-59
2022/08/13 09:24:37;;;;;;;;;;;28.80;79.20;;;;;;5026995;28;19929;-56
2022/08/13 09:27:04;;;;;;;;;;;28.70;79.10;;;;;;5031362;28;19929;-58
2022/08/13 09:29:32;;;;;;;;;;;28.70;79.10;;;;;;5043577;28;19936;-63
2022/08/13 09:32:05;;;;;;;;;;;28.70;79.10;;;;;;5022328;28;19925;-61
2022/08/13 09:34:39;;;;;;;;;;;28.70;79.10;;;;;;5035256;28;19928;-61
2022/08/13 09:37:08;;;;;;;;;;;28.70;79.10;;;;;;5016042;28;20257;-59
2022/08/13 09:39:42;;;;;;;;;;;28.70;79.00;;;;;;5041131;28;19937;-58
2022/08/13 09:42:13;;;;;;;;;;;28.80;79.10;;;;;;5033132;28;19932;-59
2022/08/13 09:44:51;;;;;;;;;;;28.80;79.10;;;;;;5038925;28;19929;-58
2022/08/13 09:47:20;;;;;;;;;;;28.80;79.10;;;;;;4996124;28;19952;-58
2022/08/13 09:50:09;;;;;;;;;;;28.80;79.10;;;;;;5020390;28;19936;-60
2022/08/13 09:52:37;;;;;;;;;;;28.80;79.10;;;;;;5030104;28;19926;-61
2022/08/13 09:55:05;;;;;;;;;;;28.80;79.20;;;;;;5037778;28;19929;-61
2022/08/13 09:58:04;;;;;;;;;;;28.80;79.20;;;;;;5035842;28;19952;-62
2022/08/13 10:00:46;;;;;;;;;;;28.80;79.20;;;;;;5021131;28;19929;-59
2022/08/13 10:03:16;;;;;;;;;;;28.80;79.20;;;;;;5037416;28;20766;-63
2022/08/13 10:05:47;;;;;;;;;;;28.80;79.20;;;;;;5017122;28;20686;-60
2022/08/13 10:08:19;;;;;;;;;;;28.80;79.10;;;;;;5045752;28;19933;-63
2022/08/13 10:10:51;;;;;;;;;;;28.80;79.20;;;;;;5042158;28;19925;-62
2022/08/13 10:13:19;;;;;;;;;;;28.80;79.20;;;;;;5029560;28;19929;-58
2022/08/13 10:15:47;;;;;;;;;;;28.80;79.20;;;;;;5030591;28;19929;-59
2022/08/13 10:18:16;;;;;;;;;;;28.80;79.20;;;;;;5033943;28;19940;-60
2022/08/13 10:20:45;;;;;;;;;;;28.80;79.20;;;;;;5025636;28;19933;-60
2022/08/13 10:23:13;;;;;;;;;;;28.80;79.20;;;;;;5042414;28;19939;-61
2022/08/13 10:25:43;;;;;;;;;;;28.80;79.20;;;;;;5021366;28;19924;-62
2022/08/13 10:28:18;;;;;;;;;;;28.80;79.20;;;;;;5013676;28;19929;-60
2022/08/13 10:30:59;;;;;;;;;;;28.80;79.20;;;;;;5033340;28;19936;-62
2022/08/13 10:33:47;;;;;;;;;;;28.80;79.20;;;;;;5032524;28;20416;-58
2022/08/13 10:36:16;;;;;;;;;;;28.80;79.20;;;;;;5032592;28;19925;-63
2022/08/13 10:38:44;;;;;;;;;;;28.80;79.20;;;;;;5027234;28;20644;-60
2022/08/13 10:41:21;;;;;;;;;;;28.80;79.20;;;;;;5030917;28;19932;-60
2022/08/13 10:43:49;;;;;;;;;;;28.80;79.20;;;;;;5038073;28;19928;-61
2022/08/13 10:46:31;;;;;;;;;;;28.80;79.20;;;;;;5044677;28;19948;-60
2022/08/13 10:49:04;;;;;;;;;;;28.80;79.20;;;;;;5043165;28;19932;-60
2022/08/13 10:51:31;;;;;;;;;;;28.80;79.10;;;;;;5028600;28;19964;-60
2022/08/13 10:54:11;;;;;;;;;;;28.80;79.20;;;;;;5032475;28;19929;-62
2022/08/13 10:56:57;;;;;;;;;;;28.70;79.10;;;;;;5035526;28;19996;-63
2022/08/13 10:59:25;;;;;;;;;;;28.80;79.20;;;;;;5043899;28;20289;-64
2022/08/13 11:01:53;;;;;;;;;;;28.80;79.20;;;;;;5038667;28;19928;-62
2022/08/13 11:04:20;;;;;;;;;;;28.80;79.20;;;;;;5033801;28;19936;-60
2022/08/13 11:06:58;;;;;;;;;;;28.80;79.20;;;;;;5034004;28;20305;-66
2022/08/13 11:09:28;;;;;;;;;;;28.80;79.20;;;;;;5038916;28;19932;-60
2022/08/13 11:12:05;;;;;;;;;;;28.80;79.20;;;;;;5036520;28;19939;-64
2022/08/13 11:14:34;;;;;;;;;;;28.80;79.20;;;;;;5019227;28;19941;-64
2022/08/13 11:17:08;;;;;;;;;;;28.80;79.20;;;;;;5033883;28;19932;-65
2022/08/13 11:19:56;;;;;;;;;;;28.80;79.50;;;;;;5028956;28;20308;-63
2022/08/13 11:22:30;;;;;;;;;;;28.80;79.20;;;;;;5032243;28;19925;-63
2022/08/13 11:24:59;;;;;;;;;;;28.80;79.20;;;;;;5034463;28;19929;-62
2022/08/13 11:27:46;;;;;;;;;;;28.80;79.10;;;;;;5028932;28;19933;-64
2022/08/13 11:30:19;;;;;;;;;;;28.80;79.10;;;;;;5022717;28;19929;-65
2022/08/13 11:33:04;;;;;;;;;;;28.80;79.10;;;;;;5019967;28;20419;-58
2022/08/13 11:35:40;;;;;;;;;;;28.80;79.00;;;;;;5033126;28;19936;-60
2022/08/13 11:38:15;;;;;;;;;;;28.80;79.10;;;;;;5034962;28;19940;-62
2022/08/13 11:40:48;;;;;;;;;;;28.90;79.20;;;;;;5039383;28;19933;-62
2022/08/13 11:43:23;;;;;;;;;;;28.90;79.10;;;;;;5038491;28;20315;-61
2022/08/13 11:46:10;;;;;;;;;;;28.90;79.10;;;;;;5040617;28;19936;-62
2022/08/13 11:48:43;;;;;;;;;;;28.80;79.00;;;;;;5030007;28;20382;-63
2022/08/13 11:51:31;;;;;;;;;;;28.90;79.10;;;;;;5029594;28;19956;-59
2022/08/13 11:54:19;;;;;;;;;;;28.90;79.10;;;;;;5005902;28;19951;-61
2022/08/13 11:57:03;;;;;;;;;;;28.90;79.00;;;;;;5029923;28;19936;-63
2022/08/13 11:59:39;;;;;;;;;;;28.90;79.00;;;;;;5037361;28;19943;-62
2022/08/13 12:02:11;;;;;;;;;;;28.90;79.00;;;;;;5039010;28;19929;-61
2022/08/13 12:04:42;;;;;;;;;;;28.90;79.00;;;;;;5036550;28;20412;-62
2022/08/13 12:07:15;;;;;;;;;;;28.90;79.00;;;;;;5038902;28;19933;-62
2022/08/13 12:09:43;;;;;;;;;;;28.90;79.00;;;;;;5021140;28;19933;-62
2022/08/13 12:12:16;;;;;;;;;;;28.90;79.00;;;;;;5039483;28;20400;-63
2022/08/13 12:14:49;;;;;;;;;;;28.90;79.00;;;;;;5042489;28;19929;-61
2022/08/13 12:17:17;;;;;;;;;;;28.90;79.00;;;;;;5034999;28;19936;-62
2022/08/13 12:20:05;;;;;;;;;;;28.90;79.00;;;;;;5039281;28;20019;-62
2022/08/13 12:22:48;;;;;;;;;;;28.90;79.50;;;;;;5040425;28;19929;-62
2022/08/13 12:25:24;;;;;;;;;;;28.90;79.00;;;;;;5017162;28;19955;-64
2022/08/13 12:28:14;;;;;;;;;;;28.90;79.60;;;;;;5040179;28;19925;-65
2022/08/13 12:30:54;;;;;;;;;;;28.90;79.00;;;;;;5032117;28;19929;-62
2022/08/13 12:33:22;;;;;;;;;;;28.90;79.00;;;;;;5039678;28;19940;-58
2022/08/13 12:35:50;;;;;;;;;;;29.00;79.00;;;;;;5036928;28;20460;-64
2022/08/13 12:38:24;;;;;;;;;;;28.90;79.00;;;;;;5019789;28;19929;-61
2022/08/13 12:40:58;;;;;;;;;;;28.90;79.00;;;;;;5034896;28;19925;-62
2022/08/13 12:43:26;;;;;;;;;;;28.90;79.00;;;;;;5037309;28;19929;-64
2022/08/13 12:46:13;;;;;;;;;;;29.00;79.00;;;;;;5036972;28;20588;-60
2022/08/13 12:48:59;;;;;;;;;;;29.00;79.00;;;;;;5038077;28;19929;-61
2022/08/13 12:51:26;;;;;;;;;;;29.00;79.00;;;;;;5034884;28;19930;-65
2022/08/13 12:54:13;;;;;;;;;;;29.00;78.90;;;;;;5021840;28;19936;-57
2022/08/13 12:57:01;;;;;;;;;;;29.00;78.90;;;;;;5017322;28;19936;-63
2022/08/13 12:59:31;;;;;;;;;;;29.00;78.80;;;;;;5023383;28;19929;-61
2022/08/13 13:02:04;;;;;;;;;;;29.00;78.80;;;;;;5040807;28;19933;-60
2022/08/13 13:04:35;;;;;;;;;;;29.00;78.80;;;;;;5020309;28;19925;-63
2022/08/13 13:07:02;;;;;;;;;;;29.10;78.80;;;;;;5021623;28;20364;-61
2022/08/13 13:09:33;;;;;;;;;;;29.10;78.80;;;;;;5031699;28;19951;-61
2022/08/13 13:12:15;;;;;;;;;;;29.10;78.80;;;;;;5020906;28;19960;-60
2022/08/13 13:14:43;;;;;;;;;;;29.10;78.80;;;;;;5039219;28;19936;-61
2022/08/13 13:17:10;;;;;;;;;;;29.10;78.70;;;;;;5039223;28;19929;-62
2022/08/13 13:19:59;;;;;;;;;;;29.10;78.70;;;;;;5031901;28;20244;-59
2022/08/13 13:22:38;;;;;;;;;;;29.20;78.80;;;;;;5042196;28;19928;-63
2022/08/13 13:25:06;;;;;;;;;;;29.20;78.80;;;;;;5039173;28;20003;-62
2022/08/13 13:27:35;;;;;;;;;;;29.20;78.80;;;;;;5038075;28;19930;-62
2022/08/13 13:30:12;;;;;;;;;;;29.20;78.90;;;;;;5024815;28;19925;-60
2022/08/13 13:32:45;;;;;;;;;;;29.30;79.00;;;;;;5039066;28;19964;-60
2022/08/13 13:35:15;;;;;;;;;;;29.30;79.00;;;;;;5032949;28;19926;-61
2022/08/13 13:38:05;;;;;;;;;;;29.30;78.90;;;;;;5030307;28;19928;-64
2022/08/13 13:40:38;;;;;;;;;;;29.40;79.00;;;;;;5024587;28;19935;-61
2022/08/13 13:43:14;;;;;;;;;;;29.40;78.90;;;;;;5032389;28;20680;-62
2022/08/13 13:45:55;;;;;;;;;;;29.40;79.50;;;;;;5041182;28;19972;-63
2022/08/13 13:48:33;;;;;;;;;;;29.50;78.90;;;;;;5032335;28;19949;-63
2022/08/13 13:51:02;;;;;;;;;;;29.50;78.80;;;;;;5037070;28;19925;-61
2022/08/13 13:53:32;;;;;;;;;;;29.50;78.70;;;;;;5039395;28;19924;-59
2022/08/13 13:56:19;;;;;;;;;;;29.50;78.70;;;;;;5038971;28;20309;-61
2022/08/13 13:58:46;;;;;;;;;;;29.60;78.70;;;;;;5013902;28;20432;-63
2022/08/13 14:01:23;;;;;;;;;;;29.60;78.60;;;;;;5043731;28;19929;-62
2022/08/13 14:03:51;;;;;;;;;;;29.70;78.60;;;;;;5018763;28;19929;-63
2022/08/13 14:06:27;;;;;;;;;;;29.70;78.60;;;;;;5020827;28;19936;-62
2022/08/13 14:08:54;;;;;;;;;;;29.80;78.50;;;;;;5018348;28;20405;-58
2022/08/13 14:11:22;;;;;;;;;;;29.80;78.50;;;;;;5036913;28;19925;-57
2022/08/13 14:13:49;;;;;;;;;;;29.80;78.40;;;;;;5034333;28;19929;-62
2022/08/13 14:16:17;;;;;;;;;;;29.90;78.40;;;;;;5031885;28;19928;-58
2022/08/13 14:18:45;;;;;;;;;;;29.90;78.40;;;;;;5039896;28;19928;-55
2022/08/13 14:21:13;;;;;;;;;;;29.90;78.30;;;;;;5014913;28;19980;-60
2022/08/13 14:23:41;;;;;;;;;;;30.00;78.30;;;;;;5028944;28;19936;-61
2022/08/13 14:26:11;;;;;;;;;;;30.00;78.30;;;;;;5034893;28;20396;-60
2022/08/13 14:28:46;;;;;;;;;;;30.00;78.20;;;;;;5031438;28;19936;-62
2022/08/13 14:31:14;;;;;;;;;;;30.00;78.70;;;;;;5038875;28;20380;-60
2022/08/13 14:33:43;;;;;;;;;;;30.10;78.10;;;;;;5018312;28;20382;-61
2022/08/13 14:36:31;;;;;;;;;;;30.10;78.10;;;;;;5035305;28;19933;-60
2022/08/13 14:39:18;;;;;;;;;;;30.10;78.00;;;;;;5031740;28;19953;-62
2022/08/13 14:41:49;;;;;;;;;;;30.20;78.00;;;;;;5015758;28;19929;-63
2022/08/13 14:44:17;;;;;;;;;;;30.20;77.90;;;;;;5036920;28;19929;-59
2022/08/13 14:47:05;;;;;;;;;;;30.30;78.00;;;;;;5035367;28;19951;-62
2022/08/13 14:49:40;;;;;;;;;;;30.30;77.80;;;;;;5031826;28;19937;-61
2022/08/13 14:52:25;;;;;;;;;;;30.30;77.80;;;;;;5033184;28;20405;-59
2022/08/13 14:55:14;;;;;;;;;;;30.40;77.70;;;;;;5032996;28;20328;-62
2022/08/13 14:57:42;;;;;;;;;;;30.40;77.60;;;;;;5030271;28;20311;-60
2022/08/13 15:00:10;;;;;;;;;;;30.50;77.60;;;;;;5040132;28;19924;-60
2022/08/13 15:02:54;;;;;;;;;;;30.50;77.50;;;;;;5035314;28;19936;-63
2022/08/13 15:05:42;;;;;;;;;;;30.60;77.40;;;;;;5031274;28;19924;-62
2022/08/13 15:08:28;;;;;;;;;;;30.60;77.40;;;;;;5036292;28;19925;-61
2022/08/13 15:11:00;;;;;;;;;;;30.70;77.30;;;;;;5029320;28;19936;-59
2022/08/13 15:13:34;;;;;;;;;;;30.70;77.30;;;;;;5027899;28;20317;-60
2022/08/13 15:16:24;;;;;;;;;;;30.70;77.10;;;;;;5031109;28;20420;-59
2022/08/13 15:18:58;;;;;;;;;;;30.70;77.10;;;;;;5015070;28;19929;-62
2022/08/13 15:21:37;;;;;;;;;;;30.70;77.00;;;;;;5037864;28;19925;-60